<?xml version="1.0" encoding="UTF-8" standalone="no" ?><gpx xmlns="http://www.topografix.com/GPX/1/1" xmlns:gpxx="http://www.garmin.com/xmlschemas/GpxExtensions/v3" xmlns:gpxtpx="http://www.garmin.com/xmlschemas/TrackPointExtension/v1" creator="Foretrex 301" version="1.1" xmlns:xsi="http://www.w3.org/2001/XMLSchema-instance" xsi:schemaLocation="http://www.topografix.com/GPX/1/1 http://www.topografix.com/GPX/1/1/gpx.xsd http://www.garmin.com/xmlschemas/GpxExtensions/v3 http://www.garmin.com/xmlschemas/GpxExtensions/v3/GpxExtensionsv3.xsd"><metadata><link href="http://www.garmin.com"><text>Garmin International</text></link><time>2011-03-09T15:15:55Z</time></metadata><trk><name>ACTIVE LOG: 09 MAR 2011 09:54</name><trkseg><trkpt lat="51.894057" lon="-1.758237"><ele>129.43</ele><time>2011-03-09T09:54:38Z</time></trkpt><trkpt lat="51.894145" lon="-1.758339"><ele>130.40</ele><time>2011-03-09T09:56:55Z</time></trkpt><trkpt lat="51.894105" lon="-1.758405"><ele>130.88</ele><time>2011-03-09T09:57:03Z</time></trkpt><trkpt lat="51.893973" lon="-1.758558"><ele>126.55</ele><time>2011-03-09T09:57:24Z</time></trkpt><trkpt lat="51.893902" lon="-1.758672"><ele>125.59</ele><time>2011-03-09T09:57:38Z</time></trkpt><trkpt lat="51.893829" lon="-1.758775"><ele>126.07</ele><time>2011-03-09T09:57:51Z</time></trkpt><trkpt lat="51.893762" lon="-1.758854"><ele>125.59</ele><time>2011-03-09T09:57:59Z</time></trkpt><trkpt lat="51.893655" lon="-1.758765"><ele>123.19</ele><time>2011-03-09T09:58:15Z</time></trkpt><trkpt lat="51.893512" lon="-1.758565"><ele>123.67</ele><time>2011-03-09T09:58:32Z</time></trkpt><trkpt lat="51.893422" lon="-1.758358"><ele>122.71</ele><time>2011-03-09T09:58:48Z</time></trkpt><trkpt lat="51.893370" lon="-1.758217"><ele>122.71</ele><time>2011-03-09T09:58:57Z</time></trkpt><trkpt lat="51.893210" lon="-1.758292"><ele>119.82</ele><time>2011-03-09T09:59:13Z</time></trkpt><trkpt lat="51.893049" lon="-1.758371"><ele>119.82</ele><time>2011-03-09T09:59:29Z</time></trkpt><trkpt lat="51.892832" lon="-1.758328"><ele>119.82</ele><time>2011-03-09T09:59:49Z</time></trkpt><trkpt lat="51.892671" lon="-1.758264"><ele>119.34</ele><time>2011-03-09T10:00:08Z</time></trkpt><trkpt lat="51.892644" lon="-1.758242"><ele>119.34</ele><time>2011-03-09T10:00:12Z</time></trkpt><trkpt lat="51.892572" lon="-1.758102"><ele>123.67</ele><time>2011-03-09T10:00:23Z</time></trkpt><trkpt lat="51.892573" lon="-1.758063"><ele>123.19</ele><time>2011-03-09T10:00:26Z</time></trkpt><trkpt lat="51.892518" lon="-1.757703"><ele>124.63</ele><time>2011-03-09T10:00:47Z</time></trkpt><trkpt lat="51.892538" lon="-1.757459"><ele>126.07</ele><time>2011-03-09T10:01:04Z</time></trkpt><trkpt lat="51.892543" lon="-1.757445"><ele>126.55</ele><time>2011-03-09T10:01:30Z</time></trkpt><trkpt lat="51.892546" lon="-1.757254"><ele>126.07</ele><time>2011-03-09T10:01:55Z</time></trkpt><trkpt lat="51.892578" lon="-1.756967"><ele>126.55</ele><time>2011-03-09T10:02:12Z</time></trkpt><trkpt lat="51.892561" lon="-1.756869"><ele>126.07</ele><time>2011-03-09T10:02:18Z</time></trkpt><trkpt lat="51.892531" lon="-1.756652"><ele>127.03</ele><time>2011-03-09T10:02:32Z</time></trkpt><trkpt lat="51.892418" lon="-1.756430"><ele>127.51</ele><time>2011-03-09T10:02:46Z</time></trkpt><trkpt lat="51.892456" lon="-1.756126"><ele>126.07</ele><time>2011-03-09T10:03:05Z</time></trkpt><trkpt lat="51.892451" lon="-1.755831"><ele>123.67</ele><time>2011-03-09T10:03:25Z</time></trkpt><trkpt lat="51.892438" lon="-1.755818"><ele>124.15</ele><time>2011-03-09T10:03:28Z</time></trkpt><trkpt lat="51.892293" lon="-1.755567"><ele>127.03</ele><time>2011-03-09T10:03:45Z</time></trkpt><trkpt lat="51.892116" lon="-1.755253"><ele>125.11</ele><time>2011-03-09T10:04:06Z</time></trkpt><trkpt lat="51.891976" lon="-1.754992"><ele>125.11</ele><time>2011-03-09T10:04:25Z</time></trkpt><trkpt lat="51.891969" lon="-1.754956"><ele>124.63</ele><time>2011-03-09T10:04:28Z</time></trkpt><trkpt lat="51.892078" lon="-1.754761"><ele>122.22</ele><time>2011-03-09T10:04:45Z</time></trkpt><trkpt lat="51.892135" lon="-1.754648"><ele>121.74</ele><time>2011-03-09T10:04:58Z</time></trkpt><trkpt lat="51.892238" lon="-1.754407"><ele>122.71</ele><time>2011-03-09T10:05:15Z</time></trkpt><trkpt lat="51.892437" lon="-1.754174"><ele>122.22</ele><time>2011-03-09T10:05:36Z</time></trkpt><trkpt lat="51.892574" lon="-1.754003"><ele>123.67</ele><time>2011-03-09T10:05:53Z</time></trkpt><trkpt lat="51.892690" lon="-1.753856"><ele>122.71</ele><time>2011-03-09T10:06:09Z</time></trkpt><trkpt lat="51.892842" lon="-1.753675"><ele>123.67</ele><time>2011-03-09T10:06:24Z</time></trkpt><trkpt lat="51.892874" lon="-1.753636"><ele>123.67</ele><time>2011-03-09T10:06:28Z</time></trkpt><trkpt lat="51.892974" lon="-1.753469"><ele>125.11</ele><time>2011-03-09T10:06:46Z</time></trkpt><trkpt lat="51.893040" lon="-1.753432"><ele>125.11</ele><time>2011-03-09T10:07:02Z</time></trkpt><trkpt lat="51.892995" lon="-1.753411"><ele>125.59</ele><time>2011-03-09T10:07:05Z</time></trkpt><trkpt lat="51.892786" lon="-1.753581"><ele>125.11</ele><time>2011-03-09T10:07:28Z</time></trkpt><trkpt lat="51.892533" lon="-1.753820"><ele>125.59</ele><time>2011-03-09T10:07:57Z</time></trkpt><trkpt lat="51.892332" lon="-1.754095"><ele>123.67</ele><time>2011-03-09T10:08:20Z</time></trkpt><trkpt lat="51.892125" lon="-1.754347"><ele>125.11</ele><time>2011-03-09T10:08:43Z</time></trkpt><trkpt lat="51.891932" lon="-1.754609"><ele>122.71</ele><time>2011-03-09T10:09:05Z</time></trkpt><trkpt lat="51.891757" lon="-1.754910"><ele>124.15</ele><time>2011-03-09T10:09:28Z</time></trkpt><trkpt lat="51.891516" lon="-1.755140"><ele>123.19</ele><time>2011-03-09T10:09:53Z</time></trkpt><trkpt lat="51.891324" lon="-1.755259"><ele>125.59</ele><time>2011-03-09T10:10:13Z</time></trkpt><trkpt lat="51.891107" lon="-1.755408"><ele>128.47</ele><time>2011-03-09T10:10:34Z</time></trkpt><trkpt lat="51.891071" lon="-1.755464"><ele>128.95</ele><time>2011-03-09T10:10:38Z</time></trkpt><trkpt lat="51.890921" lon="-1.755688"><ele>129.43</ele><time>2011-03-09T10:10:56Z</time></trkpt><trkpt lat="51.890764" lon="-1.755934"><ele>129.92</ele><time>2011-03-09T10:11:17Z</time></trkpt><trkpt lat="51.890624" lon="-1.756192"><ele>129.92</ele><time>2011-03-09T10:11:35Z</time></trkpt><trkpt lat="51.890578" lon="-1.756385"><ele>127.99</ele><time>2011-03-09T10:11:48Z</time></trkpt><trkpt lat="51.890413" lon="-1.756614"><ele>127.51</ele><time>2011-03-09T10:12:06Z</time></trkpt><trkpt lat="51.890211" lon="-1.756777"><ele>125.59</ele><time>2011-03-09T10:12:27Z</time></trkpt><trkpt lat="51.890038" lon="-1.756864"><ele>125.59</ele><time>2011-03-09T10:12:45Z</time></trkpt><trkpt lat="51.889968" lon="-1.756879"><ele>127.03</ele><time>2011-03-09T10:13:03Z</time></trkpt><trkpt lat="51.889873" lon="-1.756815"><ele>127.03</ele><time>2011-03-09T10:13:15Z</time></trkpt><trkpt lat="51.889661" lon="-1.756707"><ele>125.11</ele><time>2011-03-09T10:13:36Z</time></trkpt><trkpt lat="51.889520" lon="-1.756659"><ele>125.11</ele><time>2011-03-09T10:13:52Z</time></trkpt><trkpt lat="51.889197" lon="-1.756509"><ele>129.92</ele><time>2011-03-09T10:14:19Z</time></trkpt><trkpt lat="51.889080" lon="-1.756421"><ele>128.95</ele><time>2011-03-09T10:14:35Z</time></trkpt><trkpt lat="51.888937" lon="-1.756350"><ele>127.51</ele><time>2011-03-09T10:14:51Z</time></trkpt><trkpt lat="51.888794" lon="-1.756233"><ele>127.51</ele><time>2011-03-09T10:15:05Z</time></trkpt><trkpt lat="51.888636" lon="-1.756216"><ele>127.99</ele><time>2011-03-09T10:15:26Z</time></trkpt><trkpt lat="51.888576" lon="-1.756287"><ele>127.51</ele><time>2011-03-09T10:15:37Z</time></trkpt><trkpt lat="51.888490" lon="-1.756354"><ele>127.03</ele><time>2011-03-09T10:15:45Z</time></trkpt><trkpt lat="51.888339" lon="-1.756457"><ele>123.19</ele><time>2011-03-09T10:16:01Z</time></trkpt><trkpt lat="51.888219" lon="-1.756521"><ele>120.30</ele><time>2011-03-09T10:16:16Z</time></trkpt><trkpt lat="51.888047" lon="-1.756615"><ele>119.82</ele><time>2011-03-09T10:16:30Z</time></trkpt><trkpt lat="51.887896" lon="-1.756689"><ele>121.26</ele><time>2011-03-09T10:16:45Z</time></trkpt><trkpt lat="51.887758" lon="-1.756799"><ele>122.71</ele><time>2011-03-09T10:16:59Z</time></trkpt><trkpt lat="51.887549" lon="-1.756894"><ele>121.74</ele><time>2011-03-09T10:17:17Z</time></trkpt><trkpt lat="51.887431" lon="-1.756939"><ele>122.71</ele><time>2011-03-09T10:17:33Z</time></trkpt><trkpt lat="51.887206" lon="-1.757093"><ele>121.74</ele><time>2011-03-09T10:17:49Z</time></trkpt><trkpt lat="51.887061" lon="-1.757227"><ele>121.26</ele><time>2011-03-09T10:18:02Z</time></trkpt><trkpt lat="51.886913" lon="-1.757298"><ele>121.26</ele><time>2011-03-09T10:18:17Z</time></trkpt><trkpt lat="51.886889" lon="-1.757311"><ele>121.74</ele><time>2011-03-09T10:18:20Z</time></trkpt><trkpt lat="51.886699" lon="-1.757418"><ele>123.19</ele><time>2011-03-09T10:18:40Z</time></trkpt><trkpt lat="51.886470" lon="-1.757516"><ele>121.74</ele><time>2011-03-09T10:19:00Z</time></trkpt><trkpt lat="51.886380" lon="-1.757569"><ele>120.78</ele><time>2011-03-09T10:19:09Z</time></trkpt><trkpt lat="51.886289" lon="-1.757657"><ele>120.78</ele><time>2011-03-09T10:19:19Z</time></trkpt><trkpt lat="51.886153" lon="-1.757711"><ele>123.67</ele><time>2011-03-09T10:19:34Z</time></trkpt><trkpt lat="51.886137" lon="-1.757713"><ele>124.15</ele><time>2011-03-09T10:19:47Z</time></trkpt><trkpt lat="51.886134" lon="-1.757678"><ele>124.15</ele><time>2011-03-09T10:20:00Z</time></trkpt><trkpt lat="51.886039" lon="-1.757445"><ele>123.67</ele><time>2011-03-09T10:20:17Z</time></trkpt><trkpt lat="51.885908" lon="-1.757203"><ele>123.19</ele><time>2011-03-09T10:20:35Z</time></trkpt><trkpt lat="51.885805" lon="-1.757020"><ele>124.63</ele><time>2011-03-09T10:20:50Z</time></trkpt><trkpt lat="51.885743" lon="-1.756880"><ele>125.59</ele><time>2011-03-09T10:21:02Z</time></trkpt><trkpt lat="51.885725" lon="-1.756840"><ele>125.59</ele><time>2011-03-09T10:21:06Z</time></trkpt><trkpt lat="51.885674" lon="-1.756767"><ele>125.59</ele><time>2011-03-09T10:21:17Z</time></trkpt><trkpt lat="51.885606" lon="-1.756711"><ele>127.03</ele><time>2011-03-09T10:21:36Z</time></trkpt><trkpt lat="51.885501" lon="-1.756410"><ele>126.55</ele><time>2011-03-09T10:21:55Z</time></trkpt><trkpt lat="51.885430" lon="-1.756235"><ele>123.67</ele><time>2011-03-09T10:22:12Z</time></trkpt><trkpt lat="51.885342" lon="-1.756107"><ele>124.15</ele><time>2011-03-09T10:22:25Z</time></trkpt><trkpt lat="51.885304" lon="-1.756075"><ele>124.15</ele><time>2011-03-09T10:22:29Z</time></trkpt><trkpt lat="51.885255" lon="-1.756080"><ele>124.15</ele><time>2011-03-09T10:22:34Z</time></trkpt><trkpt lat="51.885239" lon="-1.756124"><ele>124.15</ele><time>2011-03-09T10:22:38Z</time></trkpt><trkpt lat="51.885149" lon="-1.756218"><ele>124.63</ele><time>2011-03-09T10:22:50Z</time></trkpt><trkpt lat="51.885134" lon="-1.756234"><ele>125.11</ele><time>2011-03-09T10:22:52Z</time></trkpt><trkpt lat="51.885063" lon="-1.756345"><ele>126.55</ele><time>2011-03-09T10:23:01Z</time></trkpt><trkpt lat="51.884952" lon="-1.756467"><ele>127.99</ele><time>2011-03-09T10:23:11Z</time></trkpt><trkpt lat="51.884917" lon="-1.756520"><ele>129.43</ele><time>2011-03-09T10:23:16Z</time></trkpt><trkpt lat="51.884816" lon="-1.756661"><ele>131.84</ele><time>2011-03-09T10:23:29Z</time></trkpt><trkpt lat="51.884725" lon="-1.756749"><ele>132.80</ele><time>2011-03-09T10:23:37Z</time></trkpt><trkpt lat="51.884610" lon="-1.756985"><ele>129.43</ele><time>2011-03-09T10:23:52Z</time></trkpt><trkpt lat="51.884570" lon="-1.757195"><ele>126.55</ele><time>2011-03-09T10:24:07Z</time></trkpt><trkpt lat="51.884531" lon="-1.757335"><ele>125.59</ele><time>2011-03-09T10:24:17Z</time></trkpt><trkpt lat="51.884621" lon="-1.757539"><ele>124.63</ele><time>2011-03-09T10:24:32Z</time></trkpt><trkpt lat="51.884645" lon="-1.757605"><ele>125.59</ele><time>2011-03-09T10:24:37Z</time></trkpt><trkpt lat="51.884683" lon="-1.757688"><ele>126.07</ele><time>2011-03-09T10:24:44Z</time></trkpt><trkpt lat="51.884689" lon="-1.757710"><ele>126.07</ele><time>2011-03-09T10:24:46Z</time></trkpt><trkpt lat="51.884659" lon="-1.757797"><ele>127.03</ele><time>2011-03-09T10:24:52Z</time></trkpt><trkpt lat="51.884621" lon="-1.757921"><ele>127.99</ele><time>2011-03-09T10:24:59Z</time></trkpt><trkpt lat="51.884653" lon="-1.757982"><ele>128.47</ele><time>2011-03-09T10:25:06Z</time></trkpt><trkpt lat="51.884753" lon="-1.758125"><ele>128.47</ele><time>2011-03-09T10:25:19Z</time></trkpt><trkpt lat="51.884763" lon="-1.758153"><ele>128.47</ele><time>2011-03-09T10:25:21Z</time></trkpt><trkpt lat="51.884663" lon="-1.758373"><ele>126.55</ele><time>2011-03-09T10:25:40Z</time></trkpt><trkpt lat="51.884615" lon="-1.758494"><ele>127.03</ele><time>2011-03-09T10:25:49Z</time></trkpt><trkpt lat="51.884475" lon="-1.758622"><ele>127.99</ele><time>2011-03-09T10:26:06Z</time></trkpt><trkpt lat="51.884450" lon="-1.758655"><ele>128.47</ele><time>2011-03-09T10:26:10Z</time></trkpt><trkpt lat="51.884440" lon="-1.758705"><ele>129.43</ele><time>2011-03-09T10:26:14Z</time></trkpt><trkpt lat="51.884409" lon="-1.758900"><ele>134.24</ele><time>2011-03-09T10:26:28Z</time></trkpt><trkpt lat="51.884283" lon="-1.759052"><ele>140.01</ele><time>2011-03-09T10:26:41Z</time></trkpt><trkpt lat="51.884274" lon="-1.759063"><ele>140.49</ele><time>2011-03-09T10:26:42Z</time></trkpt><trkpt lat="51.884233" lon="-1.759110"><ele>141.93</ele><time>2011-03-09T10:26:46Z</time></trkpt><trkpt lat="51.884204" lon="-1.759150"><ele>143.37</ele><time>2011-03-09T10:26:49Z</time></trkpt><trkpt lat="51.884018" lon="-1.759279"><ele>138.57</ele><time>2011-03-09T10:27:03Z</time></trkpt><trkpt lat="51.883861" lon="-1.759479"><ele>135.20</ele><time>2011-03-09T10:27:22Z</time></trkpt><trkpt lat="51.883745" lon="-1.759699"><ele>130.88</ele><time>2011-03-09T10:27:42Z</time></trkpt><trkpt lat="51.883735" lon="-1.759721"><ele>130.40</ele><time>2011-03-09T10:27:44Z</time></trkpt><trkpt lat="51.883728" lon="-1.759783"><ele>130.40</ele><time>2011-03-09T10:27:49Z</time></trkpt><trkpt lat="51.883835" lon="-1.759901"><ele>130.40</ele><time>2011-03-09T10:28:01Z</time></trkpt><trkpt lat="51.883905" lon="-1.760023"><ele>132.80</ele><time>2011-03-09T10:28:12Z</time></trkpt><trkpt lat="51.883971" lon="-1.760119"><ele>135.20</ele><time>2011-03-09T10:28:23Z</time></trkpt><trkpt lat="51.884089" lon="-1.760284"><ele>134.72</ele><time>2011-03-09T10:28:39Z</time></trkpt><trkpt lat="51.884130" lon="-1.760318"><ele>130.40</ele><time>2011-03-09T10:28:55Z</time></trkpt><trkpt lat="51.884334" lon="-1.760438"><ele>127.99</ele><time>2011-03-09T10:29:11Z</time></trkpt><trkpt lat="51.884398" lon="-1.760473"><ele>127.51</ele><time>2011-03-09T10:29:18Z</time></trkpt><trkpt lat="51.884475" lon="-1.760556"><ele>127.51</ele><time>2011-03-09T10:29:28Z</time></trkpt><trkpt lat="51.884626" lon="-1.760704"><ele>126.55</ele><time>2011-03-09T10:29:45Z</time></trkpt><trkpt lat="51.884774" lon="-1.760866"><ele>127.51</ele><time>2011-03-09T10:30:02Z</time></trkpt><trkpt lat="51.884899" lon="-1.761058"><ele>126.07</ele><time>2011-03-09T10:30:19Z</time></trkpt><trkpt lat="51.884935" lon="-1.761113"><ele>126.55</ele><time>2011-03-09T10:30:26Z</time></trkpt><trkpt lat="51.885074" lon="-1.761289"><ele>127.51</ele><time>2011-03-09T10:30:44Z</time></trkpt><trkpt lat="51.885178" lon="-1.761482"><ele>127.51</ele><time>2011-03-09T10:31:00Z</time></trkpt><trkpt lat="51.885302" lon="-1.761732"><ele>127.03</ele><time>2011-03-09T10:31:20Z</time></trkpt><trkpt lat="51.885357" lon="-1.761825"><ele>125.59</ele><time>2011-03-09T10:31:34Z</time></trkpt><trkpt lat="51.885411" lon="-1.761948"><ele>127.03</ele><time>2011-03-09T10:31:45Z</time></trkpt><trkpt lat="51.885483" lon="-1.762179"><ele>127.51</ele><time>2011-03-09T10:32:03Z</time></trkpt><trkpt lat="51.885532" lon="-1.762268"><ele>127.99</ele><time>2011-03-09T10:32:16Z</time></trkpt><trkpt lat="51.885608" lon="-1.762484"><ele>128.95</ele><time>2011-03-09T10:32:33Z</time></trkpt><trkpt lat="51.885739" lon="-1.762732"><ele>128.95</ele><time>2011-03-09T10:32:54Z</time></trkpt><trkpt lat="51.885862" lon="-1.762959"><ele>128.47</ele><time>2011-03-09T10:33:14Z</time></trkpt><trkpt lat="51.885983" lon="-1.763177"><ele>129.43</ele><time>2011-03-09T10:33:32Z</time></trkpt><trkpt lat="51.886118" lon="-1.763345"><ele>129.92</ele><time>2011-03-09T10:33:51Z</time></trkpt><trkpt lat="51.886203" lon="-1.763500"><ele>129.43</ele><time>2011-03-09T10:34:05Z</time></trkpt><trkpt lat="51.886291" lon="-1.763711"><ele>129.92</ele><time>2011-03-09T10:34:21Z</time></trkpt><trkpt lat="51.886354" lon="-1.763852"><ele>129.92</ele><time>2011-03-09T10:34:35Z</time></trkpt><trkpt lat="51.886452" lon="-1.763973"><ele>124.63</ele><time>2011-03-09T10:34:52Z</time></trkpt><trkpt lat="51.886590" lon="-1.764137"><ele>124.15</ele><time>2011-03-09T10:35:13Z</time></trkpt><trkpt lat="51.886730" lon="-1.764157"><ele>126.55</ele><time>2011-03-09T10:35:27Z</time></trkpt><trkpt lat="51.886824" lon="-1.764162"><ele>126.07</ele><time>2011-03-09T10:35:38Z</time></trkpt><trkpt lat="51.886823" lon="-1.764353"><ele>125.59</ele><time>2011-03-09T10:35:52Z</time></trkpt><trkpt lat="51.886827" lon="-1.764466"><ele>124.63</ele><time>2011-03-09T10:36:01Z</time></trkpt><trkpt lat="51.886825" lon="-1.764499"><ele>125.11</ele><time>2011-03-09T10:36:03Z</time></trkpt><trkpt lat="51.886827" lon="-1.764573"><ele>125.11</ele><time>2011-03-09T10:36:07Z</time></trkpt><trkpt lat="51.886829" lon="-1.764779"><ele>127.51</ele><time>2011-03-09T10:36:22Z</time></trkpt><trkpt lat="51.886778" lon="-1.765074"><ele>127.51</ele><time>2011-03-09T10:36:40Z</time></trkpt><trkpt lat="51.886766" lon="-1.765365"><ele>127.51</ele><time>2011-03-09T10:36:58Z</time></trkpt><trkpt lat="51.886771" lon="-1.765581"><ele>127.51</ele><time>2011-03-09T10:37:11Z</time></trkpt><trkpt lat="51.886779" lon="-1.765858"><ele>127.51</ele><time>2011-03-09T10:37:29Z</time></trkpt><trkpt lat="51.886785" lon="-1.766084"><ele>128.47</ele><time>2011-03-09T10:37:43Z</time></trkpt><trkpt lat="51.886800" lon="-1.766415"><ele>128.47</ele><time>2011-03-09T10:38:02Z</time></trkpt><trkpt lat="51.886820" lon="-1.766719"><ele>127.99</ele><time>2011-03-09T10:38:20Z</time></trkpt><trkpt lat="51.886835" lon="-1.766815"><ele>127.99</ele><time>2011-03-09T10:38:29Z</time></trkpt><trkpt lat="51.886841" lon="-1.766826"><ele>128.95</ele><time>2011-03-09T10:38:41Z</time></trkpt><trkpt lat="51.886848" lon="-1.766835"><ele>128.95</ele><time>2011-03-09T10:38:43Z</time></trkpt><trkpt lat="51.886915" lon="-1.767173"><ele>129.43</ele><time>2011-03-09T10:39:04Z</time></trkpt><trkpt lat="51.886918" lon="-1.767494"><ele>128.95</ele><time>2011-03-09T10:39:23Z</time></trkpt><trkpt lat="51.886926" lon="-1.767854"><ele>130.40</ele><time>2011-03-09T10:39:44Z</time></trkpt><trkpt lat="51.886983" lon="-1.768133"><ele>130.88</ele><time>2011-03-09T10:40:03Z</time></trkpt><trkpt lat="51.887000" lon="-1.768171"><ele>130.88</ele><time>2011-03-09T10:40:06Z</time></trkpt><trkpt lat="51.887068" lon="-1.768237"><ele>130.88</ele><time>2011-03-09T10:40:15Z</time></trkpt><trkpt lat="51.887155" lon="-1.768442"><ele>131.84</ele><time>2011-03-09T10:40:30Z</time></trkpt><trkpt lat="51.887204" lon="-1.768569"><ele>131.36</ele><time>2011-03-09T10:40:44Z</time></trkpt><trkpt lat="51.887233" lon="-1.768605"><ele>130.88</ele><time>2011-03-09T10:41:00Z</time></trkpt><trkpt lat="51.887273" lon="-1.768700"><ele>132.32</ele><time>2011-03-09T10:41:22Z</time></trkpt><trkpt lat="51.887320" lon="-1.768891"><ele>133.28</ele><time>2011-03-09T10:41:37Z</time></trkpt><trkpt lat="51.887324" lon="-1.768940"><ele>133.76</ele><time>2011-03-09T10:41:41Z</time></trkpt><trkpt lat="51.887329" lon="-1.769240"><ele>133.76</ele><time>2011-03-09T10:42:01Z</time></trkpt><trkpt lat="51.887325" lon="-1.769512"><ele>132.80</ele><time>2011-03-09T10:42:19Z</time></trkpt><trkpt lat="51.887324" lon="-1.769747"><ele>133.76</ele><time>2011-03-09T10:42:35Z</time></trkpt><trkpt lat="51.887312" lon="-1.770011"><ele>133.28</ele><time>2011-03-09T10:42:51Z</time></trkpt><trkpt lat="51.887298" lon="-1.770187"><ele>132.80</ele><time>2011-03-09T10:43:06Z</time></trkpt><trkpt lat="51.887276" lon="-1.770377"><ele>132.32</ele><time>2011-03-09T10:43:20Z</time></trkpt><trkpt lat="51.887242" lon="-1.770690"><ele>132.32</ele><time>2011-03-09T10:43:40Z</time></trkpt><trkpt lat="51.887219" lon="-1.770906"><ele>130.40</ele><time>2011-03-09T10:43:57Z</time></trkpt><trkpt lat="51.887181" lon="-1.771204"><ele>132.32</ele><time>2011-03-09T10:44:16Z</time></trkpt><trkpt lat="51.887139" lon="-1.771607"><ele>130.88</ele><time>2011-03-09T10:44:41Z</time></trkpt><trkpt lat="51.887106" lon="-1.771967"><ele>132.32</ele><time>2011-03-09T10:45:06Z</time></trkpt><trkpt lat="51.887115" lon="-1.772192"><ele>132.32</ele><time>2011-03-09T10:45:26Z</time></trkpt><trkpt lat="51.887107" lon="-1.772227"><ele>131.84</ele><time>2011-03-09T10:45:40Z</time></trkpt><trkpt lat="51.887109" lon="-1.772238"><ele>131.84</ele><time>2011-03-09T10:45:41Z</time></trkpt><trkpt lat="51.887135" lon="-1.772297"><ele>132.32</ele><time>2011-03-09T10:45:58Z</time></trkpt><trkpt lat="51.887102" lon="-1.772446"><ele>132.80</ele><time>2011-03-09T10:46:12Z</time></trkpt><trkpt lat="51.887047" lon="-1.772755"><ele>131.84</ele><time>2011-03-09T10:46:33Z</time></trkpt><trkpt lat="51.887006" lon="-1.773006"><ele>132.32</ele><time>2011-03-09T10:46:49Z</time></trkpt><trkpt lat="51.886973" lon="-1.773267"><ele>133.76</ele><time>2011-03-09T10:47:06Z</time></trkpt><trkpt lat="51.886933" lon="-1.773531"><ele>134.72</ele><time>2011-03-09T10:47:23Z</time></trkpt><trkpt lat="51.886911" lon="-1.773800"><ele>134.72</ele><time>2011-03-09T10:47:40Z</time></trkpt><trkpt lat="51.886896" lon="-1.774076"><ele>135.20</ele><time>2011-03-09T10:47:57Z</time></trkpt><trkpt lat="51.886907" lon="-1.774411"><ele>135.68</ele><time>2011-03-09T10:48:17Z</time></trkpt><trkpt lat="51.886919" lon="-1.774686"><ele>136.64</ele><time>2011-03-09T10:48:34Z</time></trkpt><trkpt lat="51.886954" lon="-1.774872"><ele>137.61</ele><time>2011-03-09T10:48:53Z</time></trkpt><trkpt lat="51.886981" lon="-1.775099"><ele>136.16</ele><time>2011-03-09T10:49:27Z</time></trkpt><trkpt lat="51.887070" lon="-1.775627"><ele>135.20</ele><time>2011-03-09T10:49:52Z</time></trkpt><trkpt lat="51.887196" lon="-1.776012"><ele>135.68</ele><time>2011-03-09T10:50:13Z</time></trkpt><trkpt lat="51.887383" lon="-1.776466"><ele>136.64</ele><time>2011-03-09T10:50:40Z</time></trkpt><trkpt lat="51.887521" lon="-1.776752"><ele>138.57</ele><time>2011-03-09T10:51:03Z</time></trkpt><trkpt lat="51.887619" lon="-1.776990"><ele>137.61</ele><time>2011-03-09T10:51:20Z</time></trkpt><trkpt lat="51.887743" lon="-1.777275"><ele>139.53</ele><time>2011-03-09T10:51:40Z</time></trkpt><trkpt lat="51.887883" lon="-1.777537"><ele>140.49</ele><time>2011-03-09T10:51:59Z</time></trkpt><trkpt lat="51.888033" lon="-1.777796"><ele>140.97</ele><time>2011-03-09T10:52:19Z</time></trkpt><trkpt lat="51.888173" lon="-1.778015"><ele>139.53</ele><time>2011-03-09T10:52:37Z</time></trkpt><trkpt lat="51.888307" lon="-1.778292"><ele>140.97</ele><time>2011-03-09T10:52:58Z</time></trkpt><trkpt lat="51.888414" lon="-1.778592"><ele>141.93</ele><time>2011-03-09T10:53:19Z</time></trkpt><trkpt lat="51.888512" lon="-1.778825"><ele>142.41</ele><time>2011-03-09T10:53:37Z</time></trkpt><trkpt lat="51.888614" lon="-1.779015"><ele>143.85</ele><time>2011-03-09T10:53:52Z</time></trkpt><trkpt lat="51.888702" lon="-1.779193"><ele>144.82</ele><time>2011-03-09T10:54:07Z</time></trkpt><trkpt lat="51.888812" lon="-1.779403"><ele>142.89</ele><time>2011-03-09T10:54:24Z</time></trkpt><trkpt lat="51.888887" lon="-1.779605"><ele>142.41</ele><time>2011-03-09T10:54:41Z</time></trkpt><trkpt lat="51.888891" lon="-1.779675"><ele>141.93</ele><time>2011-03-09T10:54:57Z</time></trkpt><trkpt lat="51.888949" lon="-1.779759"><ele>142.89</ele><time>2011-03-09T10:55:09Z</time></trkpt><trkpt lat="51.889057" lon="-1.779850"><ele>141.45</ele><time>2011-03-09T10:55:24Z</time></trkpt><trkpt lat="51.889065" lon="-1.779946"><ele>140.49</ele><time>2011-03-09T10:55:32Z</time></trkpt><trkpt lat="51.889070" lon="-1.780038"><ele>139.53</ele><time>2011-03-09T10:55:48Z</time></trkpt><trkpt lat="51.889082" lon="-1.780198"><ele>140.49</ele><time>2011-03-09T10:56:04Z</time></trkpt><trkpt lat="51.889127" lon="-1.780432"><ele>140.97</ele><time>2011-03-09T10:56:20Z</time></trkpt><trkpt lat="51.889185" lon="-1.780566"><ele>141.93</ele><time>2011-03-09T10:56:35Z</time></trkpt><trkpt lat="51.889250" lon="-1.780784"><ele>140.97</ele><time>2011-03-09T10:56:50Z</time></trkpt><trkpt lat="51.889325" lon="-1.781015"><ele>137.61</ele><time>2011-03-09T10:57:07Z</time></trkpt><trkpt lat="51.889411" lon="-1.781232"><ele>136.64</ele><time>2011-03-09T10:57:24Z</time></trkpt><trkpt lat="51.889481" lon="-1.781457"><ele>139.53</ele><time>2011-03-09T10:57:38Z</time></trkpt><trkpt lat="51.889494" lon="-1.781486"><ele>140.01</ele><time>2011-03-09T10:57:40Z</time></trkpt><trkpt lat="51.889564" lon="-1.781698"><ele>142.41</ele><time>2011-03-09T10:57:56Z</time></trkpt><trkpt lat="51.889645" lon="-1.781926"><ele>143.85</ele><time>2011-03-09T10:58:12Z</time></trkpt><trkpt lat="51.889734" lon="-1.782123"><ele>142.89</ele><time>2011-03-09T10:58:27Z</time></trkpt><trkpt lat="51.889789" lon="-1.782285"><ele>145.30</ele><time>2011-03-09T10:58:43Z</time></trkpt><trkpt lat="51.889842" lon="-1.782316"><ele>144.82</ele><time>2011-03-09T10:59:03Z</time></trkpt><trkpt lat="51.889879" lon="-1.782275"><ele>146.74</ele><time>2011-03-09T10:59:32Z</time></trkpt><trkpt lat="51.889872" lon="-1.782267"><ele>146.26</ele><time>2011-03-09T10:59:53Z</time></trkpt><trkpt lat="51.889872" lon="-1.782284"><ele>144.82</ele><time>2011-03-09T11:00:32Z</time></trkpt><trkpt lat="51.889914" lon="-1.782316"><ele>149.62</ele><time>2011-03-09T11:03:07Z</time></trkpt><trkpt lat="51.889899" lon="-1.782330"><ele>147.22</ele><time>2011-03-09T11:05:47Z</time></trkpt><trkpt lat="51.889901" lon="-1.782328"><ele>145.78</ele><time>2011-03-09T11:06:35Z</time></trkpt><trkpt lat="51.889902" lon="-1.782273"><ele>147.70</ele><time>2011-03-09T11:12:02Z</time></trkpt><trkpt lat="51.889903" lon="-1.782383"><ele>146.26</ele><time>2011-03-09T11:12:40Z</time></trkpt><trkpt lat="51.889958" lon="-1.782469"><ele>147.22</ele><time>2011-03-09T11:12:52Z</time></trkpt><trkpt lat="51.890068" lon="-1.782560"><ele>146.26</ele><time>2011-03-09T11:13:10Z</time></trkpt><trkpt lat="51.890099" lon="-1.782587"><ele>146.74</ele><time>2011-03-09T11:13:15Z</time></trkpt><trkpt lat="51.890244" lon="-1.782581"><ele>149.14</ele><time>2011-03-09T11:13:31Z</time></trkpt><trkpt lat="51.890328" lon="-1.782523"><ele>152.99</ele><time>2011-03-09T11:13:45Z</time></trkpt><trkpt lat="51.890448" lon="-1.782355"><ele>154.43</ele><time>2011-03-09T11:14:00Z</time></trkpt><trkpt lat="51.890458" lon="-1.782341"><ele>154.43</ele><time>2011-03-09T11:14:01Z</time></trkpt><trkpt lat="51.890575" lon="-1.782200"><ele>153.95</ele><time>2011-03-09T11:14:13Z</time></trkpt><trkpt lat="51.890729" lon="-1.782052"><ele>152.99</ele><time>2011-03-09T11:14:30Z</time></trkpt><trkpt lat="51.890874" lon="-1.781894"><ele>152.99</ele><time>2011-03-09T11:14:46Z</time></trkpt><trkpt lat="51.890991" lon="-1.781771"><ele>153.95</ele><time>2011-03-09T11:15:03Z</time></trkpt><trkpt lat="51.891114" lon="-1.781630"><ele>152.51</ele><time>2011-03-09T11:15:17Z</time></trkpt><trkpt lat="51.891228" lon="-1.781550"><ele>154.91</ele><time>2011-03-09T11:15:33Z</time></trkpt><trkpt lat="51.891374" lon="-1.781397"><ele>155.87</ele><time>2011-03-09T11:15:53Z</time></trkpt><trkpt lat="51.891487" lon="-1.781303"><ele>156.35</ele><time>2011-03-09T11:16:08Z</time></trkpt><trkpt lat="51.891598" lon="-1.781186"><ele>154.91</ele><time>2011-03-09T11:16:23Z</time></trkpt><trkpt lat="51.891706" lon="-1.781088"><ele>154.43</ele><time>2011-03-09T11:16:37Z</time></trkpt><trkpt lat="51.891803" lon="-1.781017"><ele>154.91</ele><time>2011-03-09T11:16:50Z</time></trkpt><trkpt lat="51.891925" lon="-1.780894"><ele>155.87</ele><time>2011-03-09T11:17:06Z</time></trkpt><trkpt lat="51.892029" lon="-1.780800"><ele>155.87</ele><time>2011-03-09T11:17:18Z</time></trkpt><trkpt lat="51.892140" lon="-1.780751"><ele>156.83</ele><time>2011-03-09T11:17:32Z</time></trkpt><trkpt lat="51.892240" lon="-1.780685"><ele>157.79</ele><time>2011-03-09T11:17:47Z</time></trkpt><trkpt lat="51.892349" lon="-1.780615"><ele>159.72</ele><time>2011-03-09T11:18:00Z</time></trkpt><trkpt lat="51.892455" lon="-1.780518"><ele>160.68</ele><time>2011-03-09T11:18:13Z</time></trkpt><trkpt lat="51.892574" lon="-1.780422"><ele>161.16</ele><time>2011-03-09T11:18:26Z</time></trkpt><trkpt lat="51.892681" lon="-1.780324"><ele>162.12</ele><time>2011-03-09T11:18:40Z</time></trkpt><trkpt lat="51.892787" lon="-1.780227"><ele>162.60</ele><time>2011-03-09T11:18:55Z</time></trkpt><trkpt lat="51.892890" lon="-1.780127"><ele>162.60</ele><time>2011-03-09T11:19:09Z</time></trkpt><trkpt lat="51.893040" lon="-1.780011"><ele>162.60</ele><time>2011-03-09T11:19:27Z</time></trkpt><trkpt lat="51.893159" lon="-1.779924"><ele>163.08</ele><time>2011-03-09T11:19:42Z</time></trkpt><trkpt lat="51.893281" lon="-1.779839"><ele>164.04</ele><time>2011-03-09T11:19:57Z</time></trkpt><trkpt lat="51.893404" lon="-1.779745"><ele>165.00</ele><time>2011-03-09T11:20:12Z</time></trkpt><trkpt lat="51.893531" lon="-1.779654"><ele>165.96</ele><time>2011-03-09T11:20:27Z</time></trkpt><trkpt lat="51.893630" lon="-1.779579"><ele>166.45</ele><time>2011-03-09T11:20:40Z</time></trkpt><trkpt lat="51.893778" lon="-1.779481"><ele>167.41</ele><time>2011-03-09T11:20:57Z</time></trkpt><trkpt lat="51.893904" lon="-1.779375"><ele>168.37</ele><time>2011-03-09T11:21:12Z</time></trkpt><trkpt lat="51.894025" lon="-1.779285"><ele>169.81</ele><time>2011-03-09T11:21:26Z</time></trkpt><trkpt lat="51.894136" lon="-1.779192"><ele>168.85</ele><time>2011-03-09T11:21:41Z</time></trkpt><trkpt lat="51.894146" lon="-1.779111"><ele>169.33</ele><time>2011-03-09T11:21:47Z</time></trkpt><trkpt lat="51.894194" lon="-1.779130"><ele>169.33</ele><time>2011-03-09T11:21:53Z</time></trkpt><trkpt lat="51.894317" lon="-1.779063"><ele>171.73</ele><time>2011-03-09T11:22:08Z</time></trkpt><trkpt lat="51.894474" lon="-1.778979"><ele>173.66</ele><time>2011-03-09T11:22:25Z</time></trkpt><trkpt lat="51.894597" lon="-1.778895"><ele>175.10</ele><time>2011-03-09T11:22:40Z</time></trkpt><trkpt lat="51.894730" lon="-1.778821"><ele>176.54</ele><time>2011-03-09T11:22:56Z</time></trkpt><trkpt lat="51.894876" lon="-1.778732"><ele>175.58</ele><time>2011-03-09T11:23:13Z</time></trkpt><trkpt lat="51.895015" lon="-1.778689"><ele>176.54</ele><time>2011-03-09T11:23:29Z</time></trkpt><trkpt lat="51.895165" lon="-1.778636"><ele>177.02</ele><time>2011-03-09T11:23:46Z</time></trkpt><trkpt lat="51.895314" lon="-1.778655"><ele>177.50</ele><time>2011-03-09T11:24:03Z</time></trkpt><trkpt lat="51.895444" lon="-1.778668"><ele>177.50</ele><time>2011-03-09T11:24:18Z</time></trkpt><trkpt lat="51.895588" lon="-1.778698"><ele>178.46</ele><time>2011-03-09T11:24:35Z</time></trkpt><trkpt lat="51.895720" lon="-1.778766"><ele>177.98</ele><time>2011-03-09T11:24:51Z</time></trkpt><trkpt lat="51.895854" lon="-1.778815"><ele>180.87</ele><time>2011-03-09T11:25:08Z</time></trkpt><trkpt lat="51.895987" lon="-1.778856"><ele>181.35</ele><time>2011-03-09T11:25:24Z</time></trkpt><trkpt lat="51.896102" lon="-1.778903"><ele>182.79</ele><time>2011-03-09T11:25:39Z</time></trkpt><trkpt lat="51.896213" lon="-1.778910"><ele>182.79</ele><time>2011-03-09T11:25:53Z</time></trkpt><trkpt lat="51.896343" lon="-1.778946"><ele>184.23</ele><time>2011-03-09T11:26:09Z</time></trkpt><trkpt lat="51.896442" lon="-1.778963"><ele>185.19</ele><time>2011-03-09T11:26:23Z</time></trkpt><trkpt lat="51.896565" lon="-1.778980"><ele>186.63</ele><time>2011-03-09T11:26:38Z</time></trkpt><trkpt lat="51.896684" lon="-1.779002"><ele>187.59</ele><time>2011-03-09T11:26:53Z</time></trkpt><trkpt lat="51.896830" lon="-1.778994"><ele>188.08</ele><time>2011-03-09T11:27:09Z</time></trkpt><trkpt lat="51.896979" lon="-1.778975"><ele>188.56</ele><time>2011-03-09T11:27:24Z</time></trkpt><trkpt lat="51.897112" lon="-1.778987"><ele>189.52</ele><time>2011-03-09T11:27:39Z</time></trkpt><trkpt lat="51.897255" lon="-1.778979"><ele>192.40</ele><time>2011-03-09T11:27:56Z</time></trkpt><trkpt lat="51.897294" lon="-1.778973"><ele>193.36</ele><time>2011-03-09T11:28:06Z</time></trkpt><trkpt lat="51.897306" lon="-1.778952"><ele>191.92</ele><time>2011-03-09T11:28:21Z</time></trkpt><trkpt lat="51.897379" lon="-1.778995"><ele>192.40</ele><time>2011-03-09T11:28:34Z</time></trkpt><trkpt lat="51.897535" lon="-1.779048"><ele>195.77</ele><time>2011-03-09T11:28:51Z</time></trkpt><trkpt lat="51.897715" lon="-1.779071"><ele>194.80</ele><time>2011-03-09T11:29:08Z</time></trkpt><trkpt lat="51.897864" lon="-1.779093"><ele>194.32</ele><time>2011-03-09T11:29:24Z</time></trkpt><trkpt lat="51.898047" lon="-1.779145"><ele>191.44</ele><time>2011-03-09T11:29:41Z</time></trkpt><trkpt lat="51.898218" lon="-1.779194"><ele>190.96</ele><time>2011-03-09T11:29:57Z</time></trkpt><trkpt lat="51.898395" lon="-1.779237"><ele>191.44</ele><time>2011-03-09T11:30:13Z</time></trkpt><trkpt lat="51.898555" lon="-1.779279"><ele>190.96</ele><time>2011-03-09T11:30:29Z</time></trkpt><trkpt lat="51.898732" lon="-1.779314"><ele>191.92</ele><time>2011-03-09T11:30:46Z</time></trkpt><trkpt lat="51.898883" lon="-1.779352"><ele>191.44</ele><time>2011-03-09T11:31:02Z</time></trkpt><trkpt lat="51.899011" lon="-1.779355"><ele>191.92</ele><time>2011-03-09T11:31:15Z</time></trkpt><trkpt lat="51.899168" lon="-1.779434"><ele>194.32</ele><time>2011-03-09T11:31:32Z</time></trkpt><trkpt lat="51.899284" lon="-1.779522"><ele>194.32</ele><time>2011-03-09T11:31:46Z</time></trkpt><trkpt lat="51.899480" lon="-1.779648"><ele>196.73</ele><time>2011-03-09T11:32:06Z</time></trkpt><trkpt lat="51.899641" lon="-1.779738"><ele>195.77</ele><time>2011-03-09T11:32:24Z</time></trkpt><trkpt lat="51.899802" lon="-1.779823"><ele>198.17</ele><time>2011-03-09T11:32:41Z</time></trkpt><trkpt lat="51.899996" lon="-1.779941"><ele>199.13</ele><time>2011-03-09T11:33:00Z</time></trkpt><trkpt lat="51.900136" lon="-1.780077"><ele>198.65</ele><time>2011-03-09T11:33:15Z</time></trkpt><trkpt lat="51.900253" lon="-1.780240"><ele>197.21</ele><time>2011-03-09T11:33:32Z</time></trkpt><trkpt lat="51.900360" lon="-1.780386"><ele>198.65</ele><time>2011-03-09T11:33:49Z</time></trkpt><trkpt lat="51.900500" lon="-1.780573"><ele>198.65</ele><time>2011-03-09T11:34:07Z</time></trkpt><trkpt lat="51.900616" lon="-1.780743"><ele>196.25</ele><time>2011-03-09T11:34:22Z</time></trkpt><trkpt lat="51.900757" lon="-1.780942"><ele>197.69</ele><time>2011-03-09T11:34:43Z</time></trkpt><trkpt lat="51.900866" lon="-1.781118"><ele>201.53</ele><time>2011-03-09T11:35:00Z</time></trkpt><trkpt lat="51.900939" lon="-1.781231"><ele>201.53</ele><time>2011-03-09T11:35:14Z</time></trkpt><trkpt lat="51.901043" lon="-1.781409"><ele>202.49</ele><time>2011-03-09T11:35:30Z</time></trkpt><trkpt lat="51.901131" lon="-1.781596"><ele>201.53</ele><time>2011-03-09T11:35:47Z</time></trkpt><trkpt lat="51.901139" lon="-1.781600"><ele>201.53</ele><time>2011-03-09T11:35:48Z</time></trkpt><trkpt lat="51.901261" lon="-1.781550"><ele>201.53</ele><time>2011-03-09T11:35:59Z</time></trkpt><trkpt lat="51.901409" lon="-1.781402"><ele>202.49</ele><time>2011-03-09T11:36:15Z</time></trkpt><trkpt lat="51.901574" lon="-1.781222"><ele>201.05</ele><time>2011-03-09T11:36:35Z</time></trkpt><trkpt lat="51.901728" lon="-1.781048"><ele>199.61</ele><time>2011-03-09T11:36:53Z</time></trkpt><trkpt lat="51.901889" lon="-1.780864"><ele>198.17</ele><time>2011-03-09T11:37:12Z</time></trkpt><trkpt lat="51.902044" lon="-1.780682"><ele>196.25</ele><time>2011-03-09T11:37:31Z</time></trkpt><trkpt lat="51.902215" lon="-1.780500"><ele>195.77</ele><time>2011-03-09T11:37:50Z</time></trkpt><trkpt lat="51.902359" lon="-1.780297"><ele>195.77</ele><time>2011-03-09T11:38:09Z</time></trkpt><trkpt lat="51.902495" lon="-1.780101"><ele>192.88</ele><time>2011-03-09T11:38:28Z</time></trkpt><trkpt lat="51.902598" lon="-1.779995"><ele>191.92</ele><time>2011-03-09T11:38:39Z</time></trkpt><trkpt lat="51.902636" lon="-1.779939"><ele>191.44</ele><time>2011-03-09T11:38:44Z</time></trkpt><trkpt lat="51.902762" lon="-1.779759"><ele>190.48</ele><time>2011-03-09T11:39:00Z</time></trkpt><trkpt lat="51.902903" lon="-1.779525"><ele>188.56</ele><time>2011-03-09T11:39:21Z</time></trkpt><trkpt lat="51.902953" lon="-1.779411"><ele>185.67</ele><time>2011-03-09T11:39:32Z</time></trkpt><trkpt lat="51.903000" lon="-1.779371"><ele>184.71</ele><time>2011-03-09T11:39:39Z</time></trkpt><trkpt lat="51.903127" lon="-1.779222"><ele>183.75</ele><time>2011-03-09T11:39:56Z</time></trkpt><trkpt lat="51.903231" lon="-1.779012"><ele>181.35</ele><time>2011-03-09T11:40:13Z</time></trkpt><trkpt lat="51.903355" lon="-1.778765"><ele>177.98</ele><time>2011-03-09T11:40:31Z</time></trkpt><trkpt lat="51.903519" lon="-1.778407"><ele>173.66</ele><time>2011-03-09T11:40:58Z</time></trkpt><trkpt lat="51.903658" lon="-1.778134"><ele>170.29</ele><time>2011-03-09T11:41:23Z</time></trkpt><trkpt lat="51.903818" lon="-1.777855"><ele>166.45</ele><time>2011-03-09T11:41:49Z</time></trkpt><trkpt lat="51.903980" lon="-1.777586"><ele>164.52</ele><time>2011-03-09T11:42:14Z</time></trkpt><trkpt lat="51.904149" lon="-1.777301"><ele>161.64</ele><time>2011-03-09T11:42:39Z</time></trkpt><trkpt lat="51.904336" lon="-1.776983"><ele>158.75</ele><time>2011-03-09T11:43:05Z</time></trkpt><trkpt lat="51.904518" lon="-1.776664"><ele>156.35</ele><time>2011-03-09T11:43:33Z</time></trkpt><trkpt lat="51.904609" lon="-1.776471"><ele>155.87</ele><time>2011-03-09T11:43:54Z</time></trkpt><trkpt lat="51.904607" lon="-1.776475"><ele>155.87</ele><time>2011-03-09T11:43:56Z</time></trkpt><trkpt lat="51.904750" lon="-1.776268"><ele>154.43</ele><time>2011-03-09T11:44:17Z</time></trkpt><trkpt lat="51.904943" lon="-1.775927"><ele>155.39</ele><time>2011-03-09T11:44:45Z</time></trkpt><trkpt lat="51.905102" lon="-1.775618"><ele>152.51</ele><time>2011-03-09T11:45:09Z</time></trkpt><trkpt lat="51.905262" lon="-1.775623"><ele>152.99</ele><time>2011-03-09T11:45:28Z</time></trkpt><trkpt lat="51.905424" lon="-1.775816"><ele>153.47</ele><time>2011-03-09T11:45:49Z</time></trkpt><trkpt lat="51.905599" lon="-1.776047"><ele>152.51</ele><time>2011-03-09T11:46:10Z</time></trkpt><trkpt lat="51.905780" lon="-1.776253"><ele>152.03</ele><time>2011-03-09T11:46:33Z</time></trkpt><trkpt lat="51.905942" lon="-1.776474"><ele>152.03</ele><time>2011-03-09T11:46:54Z</time></trkpt><trkpt lat="51.906116" lon="-1.776686"><ele>150.10</ele><time>2011-03-09T11:47:14Z</time></trkpt><trkpt lat="51.906313" lon="-1.776985"><ele>147.22</ele><time>2011-03-09T11:47:39Z</time></trkpt><trkpt lat="51.906351" lon="-1.777046"><ele>147.70</ele><time>2011-03-09T11:47:44Z</time></trkpt><trkpt lat="51.906429" lon="-1.777235"><ele>151.06</ele><time>2011-03-09T11:48:02Z</time></trkpt><trkpt lat="51.906514" lon="-1.777292"><ele>152.51</ele><time>2011-03-09T11:48:19Z</time></trkpt><trkpt lat="51.906598" lon="-1.777432"><ele>154.43</ele><time>2011-03-09T11:48:33Z</time></trkpt><trkpt lat="51.906745" lon="-1.777585"><ele>157.31</ele><time>2011-03-09T11:48:56Z</time></trkpt><trkpt lat="51.906959" lon="-1.777766"><ele>158.75</ele><time>2011-03-09T11:49:24Z</time></trkpt><trkpt lat="51.907086" lon="-1.777960"><ele>162.12</ele><time>2011-03-09T11:49:45Z</time></trkpt><trkpt lat="51.907146" lon="-1.778006"><ele>163.08</ele><time>2011-03-09T11:49:59Z</time></trkpt><trkpt lat="51.907183" lon="-1.777992"><ele>163.08</ele><time>2011-03-09T11:50:32Z</time></trkpt><trkpt lat="51.907276" lon="-1.778003"><ele>159.24</ele><time>2011-03-09T11:50:50Z</time></trkpt><trkpt lat="51.907360" lon="-1.777964"><ele>155.39</ele><time>2011-03-09T11:51:04Z</time></trkpt><trkpt lat="51.907350" lon="-1.777744"><ele>154.91</ele><time>2011-03-09T11:51:18Z</time></trkpt><trkpt lat="51.907353" lon="-1.777674"><ele>154.43</ele><time>2011-03-09T11:51:37Z</time></trkpt><trkpt lat="51.907344" lon="-1.777560"><ele>152.51</ele><time>2011-03-09T11:51:51Z</time></trkpt><trkpt lat="51.907357" lon="-1.777443"><ele>151.54</ele><time>2011-03-09T11:52:11Z</time></trkpt><trkpt lat="51.907357" lon="-1.777334"><ele>151.06</ele><time>2011-03-09T11:52:34Z</time></trkpt><trkpt lat="51.907346" lon="-1.777209"><ele>148.66</ele><time>2011-03-09T11:52:58Z</time></trkpt><trkpt lat="51.907396" lon="-1.776996"><ele>150.58</ele><time>2011-03-09T11:53:48Z</time></trkpt><trkpt lat="51.907446" lon="-1.776878"><ele>151.06</ele><time>2011-03-09T11:54:03Z</time></trkpt><trkpt lat="51.907450" lon="-1.776855"><ele>151.06</ele><time>2011-03-09T11:54:07Z</time></trkpt><trkpt lat="51.907429" lon="-1.776659"><ele>153.47</ele><time>2011-03-09T11:54:22Z</time></trkpt><trkpt lat="51.907405" lon="-1.776772"><ele>152.03</ele><time>2011-03-09T11:54:37Z</time></trkpt><trkpt lat="51.907442" lon="-1.776714"><ele>153.47</ele><time>2011-03-09T11:54:59Z</time></trkpt><trkpt lat="51.907515" lon="-1.776587"><ele>150.10</ele><time>2011-03-09T11:55:11Z</time></trkpt><trkpt lat="51.907577" lon="-1.776470"><ele>148.66</ele><time>2011-03-09T11:55:27Z</time></trkpt><trkpt lat="51.907556" lon="-1.776319"><ele>146.26</ele><time>2011-03-09T11:56:23Z</time></trkpt><trkpt lat="51.907482" lon="-1.776110"><ele>149.14</ele><time>2011-03-09T11:56:37Z</time></trkpt><trkpt lat="51.907422" lon="-1.776019"><ele>149.62</ele><time>2011-03-09T11:56:53Z</time></trkpt><trkpt lat="51.907425" lon="-1.775983"><ele>149.62</ele><time>2011-03-09T11:56:56Z</time></trkpt><trkpt lat="51.907438" lon="-1.775930"><ele>149.62</ele><time>2011-03-09T11:57:00Z</time></trkpt><trkpt lat="51.907464" lon="-1.775792"><ele>149.62</ele><time>2011-03-09T11:57:10Z</time></trkpt><trkpt lat="51.907420" lon="-1.775720"><ele>151.06</ele><time>2011-03-09T11:57:21Z</time></trkpt><trkpt lat="51.907393" lon="-1.775700"><ele>152.03</ele><time>2011-03-09T11:57:25Z</time></trkpt><trkpt lat="51.907306" lon="-1.775616"><ele>152.51</ele><time>2011-03-09T11:57:36Z</time></trkpt><trkpt lat="51.907146" lon="-1.775482"><ele>152.03</ele><time>2011-03-09T11:57:52Z</time></trkpt><trkpt lat="51.907093" lon="-1.775451"><ele>152.03</ele><time>2011-03-09T11:57:57Z</time></trkpt><trkpt lat="51.907053" lon="-1.775449"><ele>152.03</ele><time>2011-03-09T11:58:01Z</time></trkpt><trkpt lat="51.906949" lon="-1.775547"><ele>152.03</ele><time>2011-03-09T11:58:12Z</time></trkpt><trkpt lat="51.906840" lon="-1.775625"><ele>151.06</ele><time>2011-03-09T11:58:27Z</time></trkpt><trkpt lat="51.906795" lon="-1.775731"><ele>151.06</ele><time>2011-03-09T11:59:11Z</time></trkpt><trkpt lat="51.906784" lon="-1.775759"><ele>150.58</ele><time>2011-03-09T11:59:14Z</time></trkpt><trkpt lat="51.906747" lon="-1.775877"><ele>151.06</ele><time>2011-03-09T11:59:28Z</time></trkpt><trkpt lat="51.906791" lon="-1.775773"><ele>150.10</ele><time>2011-03-09T11:59:42Z</time></trkpt><trkpt lat="51.906829" lon="-1.775684"><ele>150.10</ele><time>2011-03-09T11:59:49Z</time></trkpt><trkpt lat="51.906914" lon="-1.775428"><ele>147.70</ele><time>2011-03-09T12:00:07Z</time></trkpt><trkpt lat="51.906937" lon="-1.775152"><ele>147.22</ele><time>2011-03-09T12:00:24Z</time></trkpt><trkpt lat="51.906926" lon="-1.774917"><ele>147.22</ele><time>2011-03-09T12:00:38Z</time></trkpt><trkpt lat="51.906919" lon="-1.774668"><ele>147.22</ele><time>2011-03-09T12:00:53Z</time></trkpt><trkpt lat="51.906928" lon="-1.774478"><ele>146.74</ele><time>2011-03-09T12:01:06Z</time></trkpt><trkpt lat="51.906966" lon="-1.774391"><ele>146.74</ele><time>2011-03-09T12:01:12Z</time></trkpt><trkpt lat="51.906980" lon="-1.774227"><ele>147.22</ele><time>2011-03-09T12:01:23Z</time></trkpt><trkpt lat="51.907000" lon="-1.774158"><ele>149.62</ele><time>2011-03-09T12:01:30Z</time></trkpt><trkpt lat="51.907124" lon="-1.774014"><ele>148.18</ele><time>2011-03-09T12:01:45Z</time></trkpt><trkpt lat="51.907224" lon="-1.773944"><ele>147.22</ele><time>2011-03-09T12:01:56Z</time></trkpt><trkpt lat="51.907294" lon="-1.773689"><ele>143.37</ele><time>2011-03-09T12:02:10Z</time></trkpt><trkpt lat="51.907359" lon="-1.773589"><ele>139.53</ele><time>2011-03-09T12:02:23Z</time></trkpt><trkpt lat="51.907493" lon="-1.773350"><ele>138.57</ele><time>2011-03-09T12:02:42Z</time></trkpt><trkpt lat="51.907575" lon="-1.773131"><ele>141.93</ele><time>2011-03-09T12:02:57Z</time></trkpt><trkpt lat="51.907585" lon="-1.773015"><ele>142.89</ele><time>2011-03-09T12:03:09Z</time></trkpt><trkpt lat="51.907608" lon="-1.772937"><ele>144.82</ele><time>2011-03-09T12:03:29Z</time></trkpt><trkpt lat="51.907597" lon="-1.772847"><ele>145.78</ele><time>2011-03-09T12:03:42Z</time></trkpt><trkpt lat="51.907558" lon="-1.772793"><ele>147.22</ele><time>2011-03-09T12:03:50Z</time></trkpt><trkpt lat="51.907477" lon="-1.772626"><ele>147.22</ele><time>2011-03-09T12:04:04Z</time></trkpt><trkpt lat="51.907441" lon="-1.772497"><ele>148.18</ele><time>2011-03-09T12:04:15Z</time></trkpt><trkpt lat="51.907433" lon="-1.772372"><ele>151.54</ele><time>2011-03-09T12:04:25Z</time></trkpt><trkpt lat="51.907351" lon="-1.772219"><ele>152.51</ele><time>2011-03-09T12:04:39Z</time></trkpt><trkpt lat="51.907261" lon="-1.772128"><ele>149.62</ele><time>2011-03-09T12:04:53Z</time></trkpt><trkpt lat="51.907245" lon="-1.772103"><ele>149.14</ele><time>2011-03-09T12:04:57Z</time></trkpt><trkpt lat="51.907210" lon="-1.771853"><ele>148.66</ele><time>2011-03-09T12:05:15Z</time></trkpt><trkpt lat="51.907179" lon="-1.771740"><ele>148.66</ele><time>2011-03-09T12:05:23Z</time></trkpt><trkpt lat="51.907086" lon="-1.771554"><ele>145.78</ele><time>2011-03-09T12:05:38Z</time></trkpt><trkpt lat="51.907073" lon="-1.771434"><ele>145.78</ele><time>2011-03-09T12:05:51Z</time></trkpt><trkpt lat="51.907072" lon="-1.771361"><ele>146.26</ele><time>2011-03-09T12:06:04Z</time></trkpt><trkpt lat="51.907072" lon="-1.771346"><ele>146.26</ele><time>2011-03-09T12:06:05Z</time></trkpt><trkpt lat="51.906934" lon="-1.771125"><ele>146.26</ele><time>2011-03-09T12:06:20Z</time></trkpt><trkpt lat="51.906874" lon="-1.771003"><ele>146.26</ele><time>2011-03-09T12:06:28Z</time></trkpt><trkpt lat="51.906857" lon="-1.770975"><ele>146.26</ele><time>2011-03-09T12:06:30Z</time></trkpt><trkpt lat="51.906759" lon="-1.770758"><ele>145.30</ele><time>2011-03-09T12:06:46Z</time></trkpt><trkpt lat="51.906663" lon="-1.770525"><ele>143.85</ele><time>2011-03-09T12:07:03Z</time></trkpt><trkpt lat="51.906589" lon="-1.770339"><ele>142.89</ele><time>2011-03-09T12:07:17Z</time></trkpt><trkpt lat="51.906520" lon="-1.770160"><ele>141.93</ele><time>2011-03-09T12:07:31Z</time></trkpt><trkpt lat="51.906469" lon="-1.770121"><ele>141.45</ele><time>2011-03-09T12:07:36Z</time></trkpt><trkpt lat="51.906255" lon="-1.769875"><ele>139.05</ele><time>2011-03-09T12:07:55Z</time></trkpt><trkpt lat="51.906147" lon="-1.769650"><ele>139.53</ele><time>2011-03-09T12:08:13Z</time></trkpt><trkpt lat="51.906028" lon="-1.769367"><ele>140.01</ele><time>2011-03-09T12:08:32Z</time></trkpt><trkpt lat="51.905919" lon="-1.769128"><ele>140.97</ele><time>2011-03-09T12:08:50Z</time></trkpt><trkpt lat="51.905778" lon="-1.768906"><ele>142.89</ele><time>2011-03-09T12:09:07Z</time></trkpt><trkpt lat="51.905610" lon="-1.768648"><ele>140.97</ele><time>2011-03-09T12:09:25Z</time></trkpt><trkpt lat="51.905464" lon="-1.768398"><ele>140.49</ele><time>2011-03-09T12:09:43Z</time></trkpt><trkpt lat="51.905315" lon="-1.768176"><ele>139.53</ele><time>2011-03-09T12:10:03Z</time></trkpt><trkpt lat="51.905336" lon="-1.768107"><ele>142.41</ele><time>2011-03-09T12:10:18Z</time></trkpt><trkpt lat="51.905288" lon="-1.768055"><ele>144.34</ele><time>2011-03-09T12:10:35Z</time></trkpt><trkpt lat="51.905094" lon="-1.767965"><ele>142.41</ele><time>2011-03-09T12:10:51Z</time></trkpt><trkpt lat="51.904944" lon="-1.767926"><ele>140.97</ele><time>2011-03-09T12:11:06Z</time></trkpt><trkpt lat="51.904773" lon="-1.767839"><ele>140.01</ele><time>2011-03-09T12:11:22Z</time></trkpt><trkpt lat="51.904623" lon="-1.767784"><ele>139.05</ele><time>2011-03-09T12:11:35Z</time></trkpt><trkpt lat="51.904408" lon="-1.767694"><ele>136.64</ele><time>2011-03-09T12:11:54Z</time></trkpt><trkpt lat="51.904267" lon="-1.767632"><ele>135.68</ele><time>2011-03-09T12:12:08Z</time></trkpt><trkpt lat="51.904212" lon="-1.767571"><ele>137.61</ele><time>2011-03-09T12:12:24Z</time></trkpt><trkpt lat="51.904170" lon="-1.767565"><ele>137.61</ele><time>2011-03-09T12:12:35Z</time></trkpt><trkpt lat="51.904028" lon="-1.767433"><ele>137.13</ele><time>2011-03-09T12:12:53Z</time></trkpt><trkpt lat="51.904015" lon="-1.767385"><ele>137.13</ele><time>2011-03-09T12:12:57Z</time></trkpt><trkpt lat="51.904000" lon="-1.767346"><ele>137.61</ele><time>2011-03-09T12:13:00Z</time></trkpt><trkpt lat="51.903901" lon="-1.767076"><ele>137.61</ele><time>2011-03-09T12:13:19Z</time></trkpt><trkpt lat="51.903830" lon="-1.766858"><ele>137.13</ele><time>2011-03-09T12:13:34Z</time></trkpt><trkpt lat="51.903769" lon="-1.766682"><ele>136.64</ele><time>2011-03-09T12:13:48Z</time></trkpt><trkpt lat="51.903717" lon="-1.766530"><ele>134.24</ele><time>2011-03-09T12:14:02Z</time></trkpt><trkpt lat="51.903620" lon="-1.766315"><ele>136.16</ele><time>2011-03-09T12:14:17Z</time></trkpt><trkpt lat="51.903502" lon="-1.766137"><ele>135.20</ele><time>2011-03-09T12:14:33Z</time></trkpt><trkpt lat="51.903388" lon="-1.765961"><ele>135.20</ele><time>2011-03-09T12:14:48Z</time></trkpt><trkpt lat="51.903248" lon="-1.765738"><ele>135.20</ele><time>2011-03-09T12:15:07Z</time></trkpt><trkpt lat="51.903098" lon="-1.765454"><ele>134.72</ele><time>2011-03-09T12:15:25Z</time></trkpt><trkpt lat="51.902955" lon="-1.765232"><ele>133.76</ele><time>2011-03-09T12:15:44Z</time></trkpt><trkpt lat="51.902816" lon="-1.764971"><ele>133.28</ele><time>2011-03-09T12:16:03Z</time></trkpt><trkpt lat="51.902696" lon="-1.764679"><ele>129.92</ele><time>2011-03-09T12:16:23Z</time></trkpt><trkpt lat="51.902568" lon="-1.764425"><ele>130.40</ele><time>2011-03-09T12:16:42Z</time></trkpt><trkpt lat="51.902413" lon="-1.764218"><ele>134.24</ele><time>2011-03-09T12:17:00Z</time></trkpt><trkpt lat="51.902318" lon="-1.764031"><ele>134.24</ele><time>2011-03-09T12:17:16Z</time></trkpt><trkpt lat="51.902313" lon="-1.763994"><ele>133.28</ele><time>2011-03-09T12:17:30Z</time></trkpt><trkpt lat="51.902249" lon="-1.763880"><ele>135.68</ele><time>2011-03-09T12:17:52Z</time></trkpt><trkpt lat="51.902177" lon="-1.763786"><ele>137.13</ele><time>2011-03-09T12:18:07Z</time></trkpt><trkpt lat="51.902121" lon="-1.763663"><ele>136.16</ele><time>2011-03-09T12:18:19Z</time></trkpt><trkpt lat="51.902106" lon="-1.763639"><ele>135.68</ele><time>2011-03-09T12:18:21Z</time></trkpt><trkpt lat="51.902070" lon="-1.763597"><ele>135.68</ele><time>2011-03-09T12:18:25Z</time></trkpt><trkpt lat="51.901973" lon="-1.763428"><ele>134.72</ele><time>2011-03-09T12:18:39Z</time></trkpt><trkpt lat="51.901906" lon="-1.763331"><ele>136.64</ele><time>2011-03-09T12:18:52Z</time></trkpt><trkpt lat="51.901862" lon="-1.763359"><ele>135.68</ele><time>2011-03-09T12:19:04Z</time></trkpt><trkpt lat="51.901828" lon="-1.763380"><ele>135.68</ele><time>2011-03-09T12:19:16Z</time></trkpt><trkpt lat="51.901712" lon="-1.763508"><ele>137.13</ele><time>2011-03-09T12:19:35Z</time></trkpt><trkpt lat="51.901705" lon="-1.763515"><ele>137.13</ele><time>2011-03-09T12:19:37Z</time></trkpt><trkpt lat="51.901617" lon="-1.763512"><ele>137.13</ele><time>2011-03-09T12:19:46Z</time></trkpt><trkpt lat="51.901564" lon="-1.763526"><ele>136.16</ele><time>2011-03-09T12:20:03Z</time></trkpt><trkpt lat="51.901436" lon="-1.763581"><ele>135.68</ele><time>2011-03-09T12:20:21Z</time></trkpt><trkpt lat="51.901331" lon="-1.763452"><ele>136.64</ele><time>2011-03-09T12:20:35Z</time></trkpt><trkpt lat="51.901261" lon="-1.763288"><ele>137.61</ele><time>2011-03-09T12:20:49Z</time></trkpt><trkpt lat="51.901212" lon="-1.762984"><ele>136.64</ele><time>2011-03-09T12:21:08Z</time></trkpt><trkpt lat="51.901200" lon="-1.762654"><ele>136.16</ele><time>2011-03-09T12:21:26Z</time></trkpt><trkpt lat="51.901249" lon="-1.762391"><ele>136.64</ele><time>2011-03-09T12:21:42Z</time></trkpt><trkpt lat="51.901350" lon="-1.762081"><ele>138.09</ele><time>2011-03-09T12:22:01Z</time></trkpt><trkpt lat="51.901408" lon="-1.761717"><ele>138.09</ele><time>2011-03-09T12:22:19Z</time></trkpt><trkpt lat="51.901436" lon="-1.761449"><ele>139.05</ele><time>2011-03-09T12:22:34Z</time></trkpt><trkpt lat="51.901443" lon="-1.761430"><ele>138.57</ele><time>2011-03-09T12:22:42Z</time></trkpt><trkpt lat="51.901454" lon="-1.761364"><ele>138.09</ele><time>2011-03-09T12:22:46Z</time></trkpt><trkpt lat="51.901407" lon="-1.761048"><ele>136.16</ele><time>2011-03-09T12:23:03Z</time></trkpt><trkpt lat="51.901313" lon="-1.760879"><ele>137.13</ele><time>2011-03-09T12:23:13Z</time></trkpt><trkpt lat="51.901292" lon="-1.760817"><ele>137.13</ele><time>2011-03-09T12:23:17Z</time></trkpt><trkpt lat="51.901250" lon="-1.760717"><ele>140.01</ele><time>2011-03-09T12:23:24Z</time></trkpt><trkpt lat="51.901169" lon="-1.760509"><ele>143.37</ele><time>2011-03-09T12:23:38Z</time></trkpt><trkpt lat="51.901099" lon="-1.760321"><ele>146.74</ele><time>2011-03-09T12:23:52Z</time></trkpt><trkpt lat="51.901108" lon="-1.760254"><ele>141.93</ele><time>2011-03-09T12:24:06Z</time></trkpt><trkpt lat="51.900919" lon="-1.760266"><ele>145.30</ele><time>2011-03-09T12:24:20Z</time></trkpt><trkpt lat="51.900829" lon="-1.760285"><ele>147.22</ele><time>2011-03-09T12:24:34Z</time></trkpt><trkpt lat="51.900645" lon="-1.760399"><ele>150.10</ele><time>2011-03-09T12:24:56Z</time></trkpt><trkpt lat="51.900358" lon="-1.760498"><ele>143.85</ele><time>2011-03-09T12:25:15Z</time></trkpt><trkpt lat="51.900291" lon="-1.760502"><ele>142.41</ele><time>2011-03-09T12:25:20Z</time></trkpt><trkpt lat="51.900137" lon="-1.760505"><ele>137.13</ele><time>2011-03-09T12:25:33Z</time></trkpt><trkpt lat="51.899927" lon="-1.760577"><ele>133.28</ele><time>2011-03-09T12:25:51Z</time></trkpt><trkpt lat="51.899750" lon="-1.760662"><ele>132.32</ele><time>2011-03-09T12:26:08Z</time></trkpt><trkpt lat="51.899585" lon="-1.760748"><ele>131.84</ele><time>2011-03-09T12:26:25Z</time></trkpt><trkpt lat="51.899436" lon="-1.760878"><ele>133.28</ele><time>2011-03-09T12:26:39Z</time></trkpt><trkpt lat="51.899425" lon="-1.760883"><ele>132.80</ele><time>2011-03-09T12:26:40Z</time></trkpt><trkpt lat="51.899380" lon="-1.760910"><ele>133.76</ele><time>2011-03-09T12:26:44Z</time></trkpt><trkpt lat="51.899306" lon="-1.760981"><ele>133.28</ele><time>2011-03-09T12:26:52Z</time></trkpt><trkpt lat="51.899133" lon="-1.761089"><ele>135.20</ele><time>2011-03-09T12:27:10Z</time></trkpt><trkpt lat="51.899011" lon="-1.761156"><ele>135.68</ele><time>2011-03-09T12:27:25Z</time></trkpt><trkpt lat="51.898774" lon="-1.761287"><ele>138.09</ele><time>2011-03-09T12:27:48Z</time></trkpt><trkpt lat="51.898579" lon="-1.761353"><ele>138.09</ele><time>2011-03-09T12:28:05Z</time></trkpt><trkpt lat="51.898500" lon="-1.761359"><ele>139.53</ele><time>2011-03-09T12:28:15Z</time></trkpt><trkpt lat="51.898326" lon="-1.761374"><ele>138.57</ele><time>2011-03-09T12:28:32Z</time></trkpt><trkpt lat="51.898165" lon="-1.761328"><ele>136.64</ele><time>2011-03-09T12:28:46Z</time></trkpt><trkpt lat="51.897972" lon="-1.761247"><ele>134.72</ele><time>2011-03-09T12:29:03Z</time></trkpt><trkpt lat="51.897777" lon="-1.761160"><ele>137.61</ele><time>2011-03-09T12:29:21Z</time></trkpt><trkpt lat="51.897547" lon="-1.761047"><ele>139.05</ele><time>2011-03-09T12:29:42Z</time></trkpt><trkpt lat="51.897366" lon="-1.760966"><ele>140.01</ele><time>2011-03-09T12:29:58Z</time></trkpt><trkpt lat="51.897149" lon="-1.760863"><ele>139.53</ele><time>2011-03-09T12:30:19Z</time></trkpt><trkpt lat="51.896906" lon="-1.760756"><ele>138.57</ele><time>2011-03-09T12:30:43Z</time></trkpt><trkpt lat="51.896634" lon="-1.760634"><ele>138.57</ele><time>2011-03-09T12:31:09Z</time></trkpt><trkpt lat="51.896353" lon="-1.760512"><ele>137.61</ele><time>2011-03-09T12:31:36Z</time></trkpt><trkpt lat="51.896082" lon="-1.760374"><ele>137.13</ele><time>2011-03-09T12:32:02Z</time></trkpt><trkpt lat="51.895799" lon="-1.760234"><ele>137.61</ele><time>2011-03-09T12:32:28Z</time></trkpt><trkpt lat="51.895448" lon="-1.760071"><ele>137.13</ele><time>2011-03-09T12:33:02Z</time></trkpt><trkpt lat="51.895372" lon="-1.760037"><ele>136.64</ele><time>2011-03-09T12:33:10Z</time></trkpt><trkpt lat="51.895105" lon="-1.759785"><ele>137.13</ele><time>2011-03-09T12:33:39Z</time></trkpt><trkpt lat="51.894856" lon="-1.759572"><ele>136.16</ele><time>2011-03-09T12:34:06Z</time></trkpt><trkpt lat="51.894590" lon="-1.759331"><ele>136.16</ele><time>2011-03-09T12:34:34Z</time></trkpt><trkpt lat="51.894347" lon="-1.759108"><ele>137.61</ele><time>2011-03-09T12:35:00Z</time></trkpt><trkpt lat="51.894222" lon="-1.758986"><ele>137.13</ele><time>2011-03-09T12:35:20Z</time></trkpt><trkpt lat="51.894202" lon="-1.758938"><ele>136.16</ele><time>2011-03-09T12:35:29Z</time></trkpt><trkpt lat="51.894110" lon="-1.758826"><ele>136.16</ele><time>2011-03-09T12:35:40Z</time></trkpt><trkpt lat="51.894069" lon="-1.758705"><ele>135.68</ele><time>2011-03-09T12:35:50Z</time></trkpt><trkpt lat="51.894096" lon="-1.758652"><ele>136.16</ele><time>2011-03-09T12:36:05Z</time></trkpt><trkpt lat="51.894073" lon="-1.758531"><ele>136.64</ele><time>2011-03-09T12:36:13Z</time></trkpt><trkpt lat="51.894212" lon="-1.758302"><ele>139.05</ele><time>2011-03-09T12:36:32Z</time></trkpt><trkpt lat="51.894215" lon="-1.758274"><ele>139.05</ele><time>2011-03-09T12:36:34Z</time></trkpt><trkpt lat="51.894115" lon="-1.758195"><ele>137.61</ele><time>2011-03-09T12:36:51Z</time></trkpt><trkpt lat="51.894117" lon="-1.758196"><ele>137.61</ele><time>2011-03-09T12:36:59Z</time></trkpt></trkseg></trk></gpx>